Time;durP1;ratioP1;P1;durP2;ratioP2;P2;SDS_P1;SDS_P2;PMS_P1;PMS_P2;Temp;Humidity;BMP_temperature;BMP_pressure;BME280_temperature;BME280_humidity;BME280_pressure;Samples;Min_cycle;Max_cycle;Signal;HPM_P1;HPM_P2
2022/07/12 00:02:13;;;;;;;3.30;1.42;;;;;;;12.03;100.00;100283.03;6217255;28;20403;-85
2022/07/12 00:05:14;;;;;;;2.25;1.30;;;;;;;12.00;100.00;100281.41;6275216;28;20495;-85
2022/07/12 00:08:16;;;;;;;2.45;1.38;;;;;;;11.97;100.00;100286.03;6241160;28;20048;-85
2022/07/12 00:11:16;;;;;;;3.03;1.40;;;;;;;11.94;100.00;100283.59;6240960;28;20047;-82
2022/07/12 00:14:17;;;;;;;2.95;1.27;;;;;;;11.86;100.00;100282.28;6240920;28;20450;-85
2022/07/12 00:17:22;;;;;;;1.65;1.15;;;;;;;11.85;100.00;100277.13;6257591;28;20048;-85
2022/07/12 00:20:26;;;;;;;3.03;1.52;;;;;;;11.89;100.00;100283.88;6240807;28;20040;-85
2022/07/12 00:23:26;;;;;;;2.58;1.42;;;;;;;11.79;100.00;100282.75;6240681;28;20033;-82
2022/07/12 00:26:29;;;;;;;1.65;1.27;;;;;;;11.79;100.00;100274.91;6240254;28;20069;-82
2022/07/12 00:29:31;;;;;;;2.85;1.58;;;;;;;11.79;100.00;100270.50;6257983;28;20399;-85
2022/07/12 00:32:31;;;;;;;2.10;1.30;;;;;;;11.86;100.00;100271.81;6240700;28;20045;-85
2022/07/12 00:35:33;;;;;;;1.63;1.27;;;;;;;11.76;100.00;100275.09;6240532;28;20072;-82
2022/07/12 00:38:33;;;;;;;2.90;1.50;;;;;;;11.74;100.00;100274.38;6240001;28;20162;-81
2022/07/12 00:41:34;;;;;;;2.53;1.60;;;;;;;11.63;100.00;100275.00;6240321;28;20045;-85
2022/07/12 00:44:35;;;;;;;4.38;2.40;;;;;;;11.61;100.00;100282.09;6258371;28;20518;-85
2022/07/12 00:47:49;;;;;;;3.88;1.52;;;;;;;11.50;100.00;100278.38;6225494;28;20502;-85
2022/07/12 00:50:50;;;;;;;2.17;1.40;;;;;;;11.43;100.00;100278.88;6274781;28;20055;-85
2022/07/12 00:53:52;;;;;;;2.40;1.92;;;;;;;11.46;100.00;100276.06;6257283;28;20044;-85
2022/07/12 00:56:53;;;;;;;4.40;1.80;;;;;;;11.43;100.00;100277.09;6256750;28;20095;-85
2022/07/12 00:59:54;;;;;;;5.00;2.30;;;;;;;11.47;100.00;100269.91;6256288;28;20373;-86
2022/07/12 01:02:58;;;;;;;2.13;1.60;;;;;;;11.39;100.00;100277.38;6223547;28;20063;-82
2022/07/12 01:05:59;;;;;;;4.97;1.98;;;;;;;11.39;100.00;100274.75;6273843;28;20124;-82
2022/07/12 01:09:00;;;;;;;6.78;2.40;;;;;;;11.32;100.00;100268.22;6239652;28;20041;-81
2022/07/12 01:12:01;;;;;;;4.38;2.05;;;;;;;11.26;100.00;100264.19;6222963;28;20044;-82
2022/07/12 01:15:05;;;;;;;4.60;1.88;;;;;;;11.26;100.00;100266.81;6222533;28;20045;-81
2022/07/12 01:18:06;;;;;;;2.95;1.83;;;;;;;11.12;100.00;100278.09;6255534;28;20064;-81
2022/07/12 01:21:08;;;;;;;4.45;1.80;;;;;;;11.09;100.00;100276.50;6238845;28;20403;-81
2022/07/12 01:24:10;;;;;;;2.50;2.20;;;;;;;11.13;100.00;100281.53;6255631;28;20048;-85
2022/07/12 01:27:13;;;;;;;5.15;2.35;;;;;;;11.17;100.00;100278.66;6238973;28;20041;-85
2022/07/12 01:30:17;;;;;;;3.40;2.35;;;;;;;11.02;100.00;100279.56;6222631;28;20052;-81
2022/07/12 01:33:19;;;;;;;7.93;2.65;;;;;;;11.03;100.00;100271.63;6239786;28;20056;-86
2022/07/12 01:36:20;;;;;;;4.80;2.30;;;;;;;11.03;100.00;100270.78;6255073;28;20049;-86
2022/07/12 01:39:20;;;;;;;10.50;2.88;;;;;;;11.07;100.00;100267.91;6239215;28;20098;-86
2022/07/12 01:42:22;;;;;;;4.30;2.63;;;;;;;11.08;100.00;100266.16;6222846;28;20049;-85
2022/07/12 01:45:28;;;;;;;5.30;2.88;;;;;;;11.12;100.00;100270.25;6255147;28;20037;-81
2022/07/12 01:48:29;;;;;;;8.38;2.90;;;;;;;11.15;100.00;100271.84;6238630;28;20041;-81
2022/07/12 01:51:31;;;;;;;4.80;3.40;;;;;;;11.04;100.00;100277.72;6221966;28;20048;-85
2022/07/12 01:54:32;;;;;;;3.30;2.83;;;;;;;11.09;100.00;100265.22;6255115;28;20041;-86
2022/07/12 01:57:34;;;;;;;3.50;2.80;;;;;;;11.08;100.00;100266.16;6238574;28;20033;-81
2022/07/12 02:00:35;;;;;;;;;;;;;;;11.13;100.00;100256.25;6255224;28;20033;-81
2022/07/12 02:03:37;;;;;;;5.55;3.20;;;;;;;11.19;100.00;100262.91;6254413;28;19925;-81
2022/07/12 02:06:38;;;;;;;3.63;3.33;;;;;;;11.16;100.00;100261.31;6238524;28;20044;-81
2022/07/12 02:09:39;;;;;;;4.65;3.45;;;;;;;11.16;100.00;100263.06;6254374;28;20048;-81
2022/07/12 02:12:40;;;;;;;3.33;2.97;;;;;;;11.13;100.00;100271.09;6254223;28;20049;-81
2022/07/12 02:15:41;;;;;;;3.78;2.88;;;;;;;11.06;100.00;100274.06;6221481;28;20045;-81
2022/07/12 02:18:42;;;;;;;3.88;3.47;;;;;;;11.02;100.00;100277.81;6238667;28;20112;-85
2022/07/12 02:21:43;;;;;;;9.32;3.50;;;;;;;10.84;100.00;100279.72;6237811;28;20037;-81
2022/07/12 02:24:44;;;;;;;5.43;3.45;;;;;;;10.77;100.00;100281.03;6237587;28;20135;-82
2022/07/12 02:27:45;;;;;;;6.50;3.60;;;;;;;10.68;100.00;100271.94;6237554;28;20502;-81
2022/07/12 02:30:46;;;;;;;4.78;3.58;;;;;;;10.69;100.00;100267.56;6238095;28;20037;-85
2022/07/12 02:33:47;;;;;;;5.95;3.45;;;;;;;10.67;100.00;100267.66;6254349;28;20037;-81
2022/07/12 02:36:48;;;;;;;4.78;3.25;;;;;;;10.76;100.00;100262.81;6204883;28;20139;-81
2022/07/12 02:39:50;;;;;;;5.57;3.90;;;;;;;10.78;100.00;100260.97;6253772;28;20045;-81
2022/07/12 02:42:51;;;;;;;4.73;3.67;;;;;;;10.87;100.00;100263.03;6237659;28;20044;-81
2022/07/12 02:45:53;;;;;;;4.25;3.40;;;;;;;10.94;100.00;100261.75;6221116;28;20044;-81
2022/07/12 02:48:54;;;;;;;;;;;;;;;11.01;100.00;100268.28;6254135;28;20037;-81
2022/07/12 02:51:55;;;;;;;5.13;3.55;;;;;;;11.06;100.00;100266.25;6237359;28;20362;-81
2022/07/12 02:54:56;;;;;;;4.90;3.60;;;;;;;11.12;100.00;100264.19;6253839;28;20585;-85
2022/07/12 02:57:57;;;;;;;6.30;3.25;;;;;;;11.13;100.00;100260.66;6237910;28;20048;-81
2022/07/12 03:00:57;;;;;;;6.57;3.78;;;;;;;11.12;100.00;100259.81;6254695;28;20045;-85
2022/07/12 03:03:58;;;;;;;7.38;4.07;;;;;;;10.99;100.00;100264.06;6215046;28;20064;-86
2022/07/12 03:06:59;;;;;;;5.20;4.00;;;;;;;11.01;100.00;100265.66;6230701;28;20042;-81
2022/07/12 03:10:02;;;;;;;5.35;4.28;;;;;;;11.05;100.00;100271.53;6230190;28;20049;-81
2022/07/12 03:13:03;;;;;;;5.95;3.95;;;;;;;11.06;100.00;100283.69;6229226;28;20045;-81
2022/07/12 03:16:05;;;;;;;6.28;4.43;;;;;;;11.02;100.00;100282.19;6245490;28;20124;-86
2022/07/12 03:19:06;;;;;;;9.38;4.82;;;;;;;11.01;100.00;100275.28;6246405;28;20133;-85
2022/07/12 03:22:09;;;;;;;8.45;4.70;;;;;;;11.06;100.00;100281.91;6230140;28;20042;-86
2022/07/12 03:25:10;;;;;;;7.88;4.22;;;;;;;11.12;100.00;100283.31;6230379;28;20049;-86
2022/07/12 03:28:10;;;;;;;5.65;4.50;;;;;;;11.12;100.00;100274.63;6213427;28;20094;-86
2022/07/12 03:31:11;;;;;;;6.90;4.50;;;;;;;11.12;100.00;100282.47;6229739;28;20076;-86
2022/07/12 03:34:12;;;;;;;5.47;4.30;;;;;;;11.08;100.00;100284.44;6245880;28;20092;-86
2022/07/12 03:37:14;;;;;;;10.23;4.85;;;;;;;11.08;100.00;100287.88;6246039;28;20050;-86
2022/07/12 03:40:17;;;;;;;15.15;5.00;;;;;;;11.12;100.00;100292.91;6245367;28;20172;-81
2022/07/12 03:43:18;;;;;;;8.80;5.07;;;;;;;11.11;100.00;100284.25;6245638;28;20045;-86
2022/07/12 03:46:18;;;;;;;13.52;4.85;;;;;;;11.18;100.00;100288.19;6246338;28;20537;-81
2022/07/12 03:49:19;;;;;;;11.55;4.90;;;;;;;11.30;100.00;100291.81;6212250;28;20041;-81
2022/07/12 03:52:22;;;;;;;4.55;3.95;;;;;;;11.37;100.00;100290.53;6232138;28;20111;-81
2022/07/12 03:55:23;;;;;;;5.60;4.07;;;;;;;11.55;100.00;100291.19;6250781;28;20136;-86
2022/07/12 03:58:28;;;;;;;5.43;4.15;;;;;;;11.74;100.00;100297.88;6217391;28;20038;-85
2022/07/12 04:01:32;;;;;;;11.80;4.80;;;;;;;11.87;100.00;100304.84;6250353;28;20045;-85
2022/07/12 04:04:33;;;;;;;6.15;4.32;;;;;;;11.88;100.00;100293.50;6233750;28;20050;-85
2022/07/12 04:07:35;;;;;;;6.18;4.15;;;;;;;12.03;100.00;100315.22;6216795;28;20542;-82
2022/07/12 04:10:36;;;;;;;5.65;4.38;;;;;;;12.04;100.00;100316.91;6250800;28;20072;-85
2022/07/12 04:13:37;;;;;;;7.72;3.92;;;;;;;12.00;100.00;100304.94;6233469;28;20046;-85
2022/07/12 04:16:38;;;;;;;6.55;4.40;;;;;;;12.00;100.00;100315.41;6232628;28;20041;-81
2022/07/12 04:19:39;;;;;;;9.57;3.95;;;;;;;11.99;100.00;100308.53;6249873;28;20096;-81
2022/07/12 04:22:40;;;;;;;3.67;3.38;;;;;;;12.07;100.00;100310.66;6232363;28;20037;-81
2022/07/12 04:25:41;;;;;;;10.00;3.67;;;;;;;12.14;100.00;100313.72;6215670;28;20053;-81
2022/07/12 04:28:42;;;;;;;6.70;3.58;;;;;;;12.28;100.00;100305.84;6231905;28;20473;-81
2022/07/12 04:31:43;;;;;;;4.30;3.30;;;;;;;12.44;100.00;100306.53;6215768;28;20049;-81
2022/07/12 04:34:44;;;;;;;5.05;3.55;;;;;;;12.67;100.00;100309.41;6231997;28;20060;-81
2022/07/12 04:37:45;;;;;;;6.75;3.28;;;;;;;12.79;100.00;100298.13;6215717;28;20497;-85
2022/07/12 04:40:46;;;;;;;7.05;3.28;;;;;;;12.91;100.00;100312.22;6231790;28;20060;-81
2022/07/12 04:43:46;;;;;;;6.75;3.03;;;;;;;13.01;100.00;100315.03;6231841;28;20057;-81
2022/07/12 04:46:47;;;;;;;2.70;2.50;;;;;;;13.17;100.00;100317.47;6231675;28;20060;-81
2022/07/12 04:49:51;;;;;;;3.53;2.50;;;;;;;13.41;100.00;100323.69;6231641;28;20482;-81
2022/07/12 04:52:52;;;;;;;3.50;2.58;;;;;;;13.62;100.00;100307.41;6216392;28;20286;-85
2022/07/12 04:55:57;;;;;;;5.47;2.45;;;;;;;13.81;100.00;100318.28;6231514;28;20507;-85
2022/07/12 04:58:57;;;;;;;5.25;2.88;;;;;;;13.97;100.00;100320.66;6231944;28;20381;-81
2022/07/12 05:01:58;;;;;;;3.78;2.28;;;;;;;14.11;100.00;100317.06;6213922;28;20048;-81
2022/07/12 05:04:59;;;;;;;5.65;2.35;;;;;;;14.23;100.00;100316.19;6238469;28;20076;-81
2022/07/12 05:08:00;;;;;;;5.28;2.13;;;;;;;14.34;100.00;100320.66;6273850;28;20380;-85
2022/07/12 05:11:02;;;;;;;1.85;1.27;;;;;;;14.48;100.00;100324.91;6223883;28;20048;-85
2022/07/12 05:14:05;;;;;;;6.80;1.70;;;;;;;14.60;100.00;100315.31;6273532;28;20044;-81
2022/07/12 05:17:07;;;;;;;8.45;1.67;;;;;;;14.70;100.00;100311.06;6207159;28;20053;-85
2022/07/12 05:20:08;;;;;;;2.58;1.27;;;;;;;14.83;100.00;100318.88;6238665;28;20057;-81
2022/07/12 05:23:12;;;;;;;3.55;1.42;;;;;;;14.91;95.65;100325.22;6255118;28;20048;-81
2022/07/12 05:26:13;;;;;;;2.28;1.25;;;;;;;14.91;95.69;100325.22;6239761;28;20041;-82
2022/07/12 05:29:16;;;;;;;1.58;1.20;;;;;;;14.84;94.75;100331.06;6239637;28;20056;-81
2022/07/12 05:32:17;;;;;;;8.73;1.52;;;;;;;14.69;98.13;100336.47;6255453;28;20115;-85
2022/07/12 05:35:18;;;;;;;3.50;1.20;;;;;;;14.67;97.40;100342.81;6256181;28;20041;-86
2022/07/12 05:38:19;;;;;;;2.13;1.20;;;;;;;14.76;95.68;100331.59;6238646;28;20071;-81
2022/07/12 05:41:19;;;;;;;3.28;0.82;;;;;;;14.69;96.75;100333.03;6272716;28;20072;-82
2022/07/12 05:44:20;;;;;;;3.42;1.30;;;;;;;14.57;93.43;100328.69;6255166;28;20052;-87
2022/07/12 05:47:21;;;;;;;1.20;1.00;;;;;;;14.47;94.53;100320.59;6255391;28;20048;-82
2022/07/12 05:50:22;;;;;;;2.60;0.90;;;;;;;14.79;92.92;100327.94;6238804;28;20045;-82
2022/07/12 05:53:23;;;;;;;1.85;1.13;;;;;;;14.81;93.16;100318.16;6222463;28;20047;-82
2022/07/12 05:56:23;;;;;;;1.80;1.00;;;;;;;15.04;93.30;100321.69;6238784;28;20388;-86
2022/07/12 05:59:24;;;;;;;5.05;1.40;;;;;;;15.11;91.08;100320.25;6255903;28;20446;-81
2022/07/12 06:02:26;;;;;;;2.27;1.00;;;;;;;15.29;87.28;100328.53;6238532;28;20053;-81
2022/07/12 06:05:26;;;;;;;1.88;1.15;;;;;;;15.44;86.02;100327.38;6222272;28;20080;-82
2022/07/12 06:08:27;;;;;;;2.05;1.25;;;;;;;15.63;84.18;100323.31;6254620;28;20410;-81
2022/07/12 06:11:28;;;;;;;2.28;1.30;;;;;;;15.81;83.13;100321.88;6223540;28;20501;-86
2022/07/12 06:14:30;;;;;;;1.83;1.20;;;;;;;16.03;83.10;100326.28;6238489;28;20044;-83
2022/07/12 06:17:31;;;;;;;4.25;1.10;;;;;;;16.39;79.30;100336.63;6205477;28;20503;-87
2022/07/12 06:20:37;;;;;;;2.22;1.17;;;;;;;16.51;77.63;100322.47;6223744;28;20129;-81
2022/07/12 06:23:37;;;;;;;3.17;1.38;;;;;;;16.82;76.47;100320.81;6271899;28;20381;-87
2022/07/12 06:26:42;;;;;;;2.13;1.33;;;;;;;16.97;75.47;100336.31;6238178;28;20503;-87
2022/07/12 06:29:47;;;;;;;3.83;1.27;;;;;;;17.20;74.60;100337.03;6255184;28;20041;-88
2022/07/12 06:32:48;;;;;;;5.95;1.55;;;;;;;17.31;73.46;100329.84;6222314;28;20107;-88
2022/07/12 06:35:49;;;;;;;3.35;1.27;;;;;;;17.47;71.79;100332.03;6255157;28;20044;-82
2022/07/12 06:38:51;;;;;;;6.80;1.30;;;;;;;17.99;67.80;100323.25;6238034;28;20075;-88
2022/07/12 06:41:52;;;;;;;1.58;1.02;;;;;;;18.18;65.63;100331.22;6221358;28;20045;-81
2022/07/12 06:44:53;;;;;;;3.95;1.27;;;;;;;17.98;65.78;100318.94;6205176;28;20052;-88
2022/07/12 06:47:56;;;;;;;3.05;1.05;;;;;;;18.17;66.50;100318.16;6238418;28;20147;-88
2022/07/12 06:50:59;;;;;;;5.80;0.82;;;;;;;18.36;64.82;100315.53;6240007;28;20547;-87
2022/07/12 06:54:00;;;;;;;9.90;0.93;;;;;;;18.55;62.06;100317.34;6274436;28;20411;-81
2022/07/12 06:57:01;;;;;;;2.95;0.82;;;;;;;18.67;59.61;100316.22;6240952;28;20045;-82
2022/07/12 07:00:04;;;;;;;1.48;0.80;;;;;;;18.84;58.92;100312.09;6263420;28;20037;-87
2022/07/12 07:03:16;;;;;;;5.93;0.95;;;;;;;18.97;57.95;100310.97;6263220;28;20053;-90
2022/07/12 07:06:21;;;;;;;;;;;;;;;19.32;58.75;100319.09;6247849;28;20044;-88
2022/07/12 07:09:50;;;;;;;5.68;0.82;;;;;;;19.59;55.76;100311.34;6216691;28;19928;-88
2022/07/12 07:12:51;;;;;;;3.88;0.80;;;;;;;19.76;55.89;100317.72;6228573;28;20492;-89
2022/07/12 07:15:59;;;;;;;11.33;0.90;;;;;;;19.60;52.97;100318.28;6227953;28;20046;-87
2022/07/12 07:19:02;;;;;;;1.13;0.60;;;;;;;19.95;54.03;100324.72;6195310;28;20072;-91
2022/07/12 07:22:04;;;;;;;4.30;0.88;;;;;;;20.06;53.20;100320.06;6210888;28;20042;-90
2022/07/12 07:25:12;;;;;;;3.67;0.90;;;;;;;20.32;54.92;100316.66;6229773;28;20060;-89
2022/07/12 07:28:15;;;;;;;4.93;1.02;;;;;;;20.48;53.90;100322.13;6200539;28;20444;-88
2022/07/12 07:31:20;;;;;;;5.38;0.70;;;;;;;20.54;51.55;100324.16;6198769;28;20050;-82
2022/07/12 07:34:23;;;;;;;2.40;0.75;;;;;;;20.62;51.50;100330.56;6177429;28;20061;-82
2022/07/12 07:37:27;;;;;;;3.22;0.70;;;;;;;20.66;49.95;100324.81;6178325;28;20484;-90
2022/07/12 07:40:28;;;;;;;1.95;0.90;;;;;;;20.59;49.67;100337.03;6231995;28;20511;-81
2022/07/12 07:43:35;;;;;;;7.40;0.83;;;;;;;20.86;48.67;100329.97;6259828;28;20052;-80
2022/07/12 07:46:46;;;;;;;7.15;0.75;;;;;;;21.01;49.46;100327.59;6263475;28;20048;-85
2022/07/12 07:49:52;;;;;;;8.65;1.13;;;;;;;21.10;48.04;100318.69;6227136;28;20056;-83
2022/07/12 07:52:53;;;;;;;5.07;0.60;;;;;;;21.19;48.73;100309.81;6246699;28;20538;-92
2022/07/12 07:55:55;;;;;;;;;;;;;;;21.44;48.15;100324.06;6244758;28;20049;-83
2022/07/12 07:58:56;;;;;;;4.72;0.95;;;;;;;21.73;51.45;100320.22;6228068;28;19920;-83
2022/07/12 08:01:57;;;;;;;6.88;0.88;;;;;;;21.51;46.32;100329.56;6258845;28;20037;-83
2022/07/12 08:04:57;;;;;;;1.00;0.83;;;;;;;21.41;47.34;100327.00;6219357;28;20053;-88
2022/07/12 08:08:01;;;;;;;5.07;0.70;;;;;;;21.52;46.70;100328.59;6259118;28;20106;-94
2022/07/12 08:11:03;;;;;;;3.78;0.60;;;;;;;21.82;46.00;100324.56;6240821;28;20041;-96
2022/07/12 08:14:05;;;;;;;;;;;;;;;22.09;45.00;100327.97;6258101;28;20547;-88
2022/07/12 08:17:09;;;;;;;2.33;0.80;;;;;;;21.92;44.18;100322.63;6238136;28;19921;-88
2022/07/12 08:20:15;;;;;;;1.38;0.40;;;;;;;22.20;42.80;100324.22;6256292;28;20412;-91
2022/07/12 08:23:19;;;;;;;2.33;0.60;;;;;;;22.52;43.29;100320.78;6256144;28;20041;-94
2022/07/12 08:26:20;;;;;;;6.05;0.77;;;;;;;22.80;42.74;100308.00;6252457;28;20049;-92
2022/07/12 08:29:21;;;;;;;6.63;0.60;;;;;;;23.40;41.55;100320.09;6254329;28;20076;-81
2022/07/12 08:32:29;;;;;;;1.67;0.60;;;;;;;23.69;41.56;100308.84;6252398;28;20049;-82
2022/07/12 08:35:32;;;;;;;1.37;0.50;;;;;;;24.12;41.83;100313.81;6251307;28;20124;-83
2022/07/12 08:38:36;;;;;;;1.45;0.88;;;;;;;22.66;40.84;100319.31;6217140;28;20053;-83
2022/07/12 08:41:40;;;;;;;3.40;1.10;;;;;;;21.49;41.83;100305.84;6202960;28;20041;-89
2022/07/12 08:44:42;;;;;;;;;;;;;;;21.87;42.17;100318.81;6257447;28;20080;-85
2022/07/12 08:47:50;;;;;;;1.25;0.50;;;;;;;23.27;40.56;100312.63;6248857;28;19925;-93
2022/07/12 08:51:06;;;;;;;3.83;0.47;;;;;;;22.84;39.60;100319.16;6253371;28;20049;-83
2022/07/12 08:54:36;;;;;;;1.95;0.47;;;;;;;22.33;41.40;100309.47;6232964;28;20289;-82
2022/07/12 08:57:37;;;;;;;2.05;0.77;;;;;;;22.13;41.68;100308.91;6248004;28;20511;-85
2022/07/12 09:00:41;;;;;;;0.60;0.53;;;;;;;22.97;39.89;100308.81;6232020;28;20038;-85
2022/07/12 09:03:42;;;;;;;1.75;0.88;;;;;;;22.66;40.28;100308.69;6248055;28;20128;-82
2022/07/12 09:06:45;;;;;;;1.45;1.10;;;;;;;22.02;40.91;100308.38;6248982;28;20129;-82
2022/07/12 09:09:48;;;;;;;1.90;0.57;;;;;;;21.75;41.92;100310.28;6247595;28;20037;-84
2022/07/12 09:12:49;;;;;;;1.75;0.77;;;;;;;22.33;41.22;100306.00;6248871;28;20046;-96
2022/07/12 09:15:50;;;;;;;4.57;0.55;;;;;;;22.53;39.04;100303.84;6250703;28;20037;-91
2022/07/12 09:19:10;;;;;;;8.00;0.60;;;;;;;23.45;40.81;100300.94;6247787;28;20471;-85
2022/07/12 09:22:18;;;;;;;2.75;0.77;;;;;;;24.59;38.27;100306.72;6250826;28;20052;-80
2022/07/12 09:25:21;;;;;;;8.77;0.57;;;;;;;23.92;37.24;100300.09;6235057;28;20075;-85
2022/07/12 09:28:22;;;;;;;4.40;0.63;;;;;;;24.62;36.31;100306.34;6251795;28;20034;-81
2022/07/12 09:31:38;;;;;;;2.00;0.53;;;;;;;25.36;34.98;100306.50;6233401;28;20415;-83
2022/07/12 09:38:09;;;;;;;6.93;0.50;;;;;;;23.38;37.69;100286.66;6250741;28;20045;-91
2022/07/12 09:41:18;;;;;;;5.80;0.50;;;;;;;23.31;37.25;100294.50;6251881;28;20492;-91
2022/07/12 09:44:20;;;;;;;3.15;0.28;;;;;;;23.49;37.06;100300.44;6251243;28;20043;-90
2022/07/12 09:47:22;;;;;;;1.27;0.38;;;;;;;24.03;37.17;100301.53;6247882;28;20047;-83
2022/07/12 09:50:25;;;;;;;3.05;0.60;;;;;;;23.67;39.76;100297.53;6232144;28;20049;-90
2022/07/12 09:53:33;;;;;;;3.55;0.30;;;;;;;23.41;38.42;100296.94;6232700;28;20113;-93
2022/07/12 09:56:36;;;;;;;5.07;0.55;;;;;;;22.74;38.04;100298.03;6247909;28;20037;-88
2022/07/12 09:59:37;;;;;;;1.30;0.40;;;;;;;22.76;38.20;100293.38;6247072;28;20042;-92
2022/07/12 10:02:41;;;;;;;1.15;0.50;;;;;;;22.72;38.85;100292.06;6247071;28;20044;-82
2022/07/12 10:05:43;;;;;;;2.97;0.60;;;;;;;22.79;39.12;100303.66;6238447;28;20504;-92
2022/07/12 10:08:43;;;;;;;;;;;;;;;22.88;38.89;100292.03;6257030;28;20385;-91
2022/07/12 10:11:44;;;;;;;2.35;0.40;;;;;;;22.66;40.68;100296.19;6242810;28;19947;-93
2022/07/12 10:14:51;;;;;;;2.67;0.50;;;;;;;22.25;39.21;100298.00;6240454;28;20056;-81
2022/07/12 10:17:55;;;;;;;3.20;0.47;;;;;;;22.49;38.55;100292.72;6273909;28;20041;-89
2022/07/12 10:20:56;;;;;;;0.40;0.38;;;;;;;22.68;38.60;100286.22;6254945;28;20420;-84
2022/07/12 10:23:57;;;;;;;1.30;0.30;;;;;;;22.49;38.70;100292.72;6254684;28;20045;-82
2022/07/12 10:27:19;;;;;;;2.63;0.30;;;;;;;22.63;38.99;100293.03;6238272;28;20044;-83
2022/07/12 10:30:23;;;;;;;1.52;0.45;;;;;;;23.44;37.67;100292.13;6244887;28;20057;-82
2022/07/12 10:33:24;;;;;;;1.33;0.50;;;;;;;23.82;39.42;100283.50;6272767;28;20035;-85
2022/07/12 10:36:32;;;;;;;1.20;0.47;;;;;;;24.02;37.32;100279.41;6254190;28;20048;-83
2022/07/12 10:39:33;;;;;;;9.65;0.60;;;;;;;24.17;36.55;100271.47;6223764;28;20037;-81
2022/07/12 10:42:34;;;;;;;0.57;0.30;;;;;;;24.10;35.36;100279.34;6237598;28;20044;-89
2022/07/12 10:45:43;;;;;;;4.80;0.50;;;;;;;24.02;35.75;100278.56;6222192;28;20040;-81
2022/07/12 10:48:44;;;;;;;2.25;0.45;;;;;;;23.61;37.00;100274.25;6255007;28;20052;-88
2022/07/12 10:52:11;;;;;;;1.17;0.50;;;;;;;23.24;36.45;100269.56;6274894;28;20045;-87
2022/07/12 10:55:12;;;;;;;2.45;0.47;;;;;;;23.33;36.90;100274.69;6254528;28;20049;-80
2022/07/12 10:58:30;;;;;;;2.13;0.60;;;;;;;24.90;36.97;100266.59;6275189;28;20491;-87
2022/07/12 11:01:32;;;;;;;8.98;0.50;;;;;;;24.59;36.08;100272.03;6276664;28;20045;-81
2022/07/12 11:04:33;;;;;;;0.75;0.47;;;;;;;24.63;36.91;100268.81;6243588;28;20144;-80
2022/07/12 11:07:34;;;;;;;;;;;;;;;24.47;35.33;100267.09;6260843;28;20052;-88
2022/07/12 11:10:35;;;;;;;1.17;0.40;;;;;;;24.41;39.95;100261.66;6243662;28;19920;-86
2022/07/12 11:13:36;;;;;;;1.45;0.40;;;;;;;24.08;35.86;100256.53;6260450;28;20047;-91
2022/07/12 11:16:51;;;;;;;1.33;0.30;;;;;;;23.34;35.64;100267.53;6211161;28;20415;-82
2022/07/12 11:20:14;;;;;;;0.88;0.38;;;;;;;23.55;35.91;100264.28;6277166;28;20484;-83
2022/07/12 11:23:15;;;;;;;1.50;0.40;;;;;;;23.31;35.38;100268.72;6232028;28;20105;-90
2022/07/12 11:26:17;;;;;;;1.58;0.50;;;;;;;23.52;36.20;100256.66;6243128;28;20040;-84
2022/07/12 11:29:19;;;;;;;0.52;0.40;;;;;;;23.67;37.08;100260.22;6258823;28;20518;-87
2022/07/12 11:32:34;;;;;;;;;;;;;;;23.83;35.05;100259.34;6259055;28;20102;-79
2022/07/12 11:35:36;;;;;;;2.20;0.50;;;;;;;23.79;35.52;100249.22;6258225;28;19928;-86
2022/07/12 11:38:39;;;;;;;0.95;0.30;;;;;;;23.79;34.34;100251.91;6258345;28;20506;-83
2022/07/12 11:41:56;;;;;;;3.95;0.50;;;;;;;23.87;34.71;100247.34;6257764;28;20532;-88
2022/07/12 11:44:57;;;;;;;0.38;0.22;;;;;;;24.77;37.38;100245.00;6261080;28;20044;-88
2022/07/12 11:48:03;;;;;;;4.72;0.40;;;;;;;25.77;33.11;100241.06;6226066;28;20044;-78
2022/07/12 11:51:06;;;;;;;0.45;0.30;;;;;;;25.79;32.06;100234.50;6257904;28;20036;-86
2022/07/12 11:54:07;;;;;;;1.85;0.40;;;;;;;25.33;33.28;100229.44;6277586;28;20076;-89
2022/07/12 11:57:09;;;;;;;;;;;;;;;25.83;31.64;100232.28;6258785;28;20052;-91
2022/07/12 12:00:22;;;;;;;0.25;0.22;;;;;;;25.73;31.39;100229.91;6259088;28;20058;-88
2022/07/12 12:03:24;;;;;;;4.05;0.40;;;;;;;25.99;32.95;100228.59;6259962;28;20092;-89
2022/07/12 12:06:25;;;;;;;;;;;;;;;25.52;33.03;100230.69;6243674;28;20140;-84
2022/07/12 12:09:26;;;;;;;9.30;0.40;;;;;;;25.09;32.50;100228.66;6258099;28;20294;-91
2022/07/12 12:12:48;;;;;;;2.08;0.55;;;;;;;24.27;32.36;100236.56;6257961;28;20044;-90
2022/07/12 12:15:51;;;;;;;1.10;0.40;;;;;;;23.86;34.38;100240.34;6275175;28;20053;-82
2022/07/12 12:18:55;;;;;;;2.22;0.47;;;;;;;23.24;34.72;100232.28;6276056;28;20091;-92
2022/07/12 12:21:56;;;;;;;0.82;0.50;;;;;;;23.08;35.75;100241.13;6258356;28;20041;-91
2022/07/12 12:24:59;;;;;;;2.25;0.40;;;;;;;23.63;36.11;100224.28;6276013;28;20478;-81
2022/07/12 12:28:04;;;;;;;4.30;0.50;;;;;;;23.43;34.07;100226.56;6240556;28;20048;-82
2022/07/12 12:31:08;;;;;;;4.07;0.30;;;;;;;23.52;35.01;100232.69;6287215;28;20040;-81
2022/07/12 12:34:13;;;;;;;3.30;0.52;;;;;;;24.56;32.60;100243.03;6266386;28;20049;-91
2022/07/12 12:37:14;;;;;;;2.88;0.40;;;;;;;25.20;34.77;100246.06;6266875;28;20036;-89
2022/07/12 12:40:19;;;;;;;0.90;0.40;;;;;;;24.97;32.81;100234.66;6266593;28;20097;-89
2022/07/12 12:43:20;;;;;;;2.67;0.40;;;;;;;24.35;32.93;100233.84;6282862;28;20562;-90
2022/07/12 12:46:21;;;;;;;0.90;0.30;;;;;;;23.80;33.09;100233.03;6282171;28;20047;-91
2022/07/12 12:49:51;;;;;;;2.28;0.32;;;;;;;24.00;34.29;100235.28;6265663;28;20415;-91
2022/07/12 12:52:52;;;;;;;1.92;0.25;;;;;;;23.85;33.80;100225.38;6296477;28;20063;-81
2022/07/12 12:55:54;;;;;;;;;;;;;;;24.20;35.29;100233.81;6269861;28;20041;-79
2022/07/12 12:58:57;;;;;;;6.68;0.50;;;;;;;24.89;33.52;100239.06;6270307;28;19931;-79
2022/07/12 13:01:57;;;;;;;;;;;;;;;24.76;34.99;100235.38;6240006;28;20102;-87
2022/07/12 13:04:58;;;;;;;0.22;0.22;;;;;;;23.70;33.91;100230.59;6257117;28;19921;-86
2022/07/12 13:07:59;;;;;;;3.37;0.40;;;;;;;23.44;34.31;100228.22;6220336;28;20044;-86
2022/07/12 13:11:18;;;;;;;4.40;0.40;;;;;;;23.72;34.79;100228.59;6240861;28;20278;-87
2022/07/12 13:14:21;;;;;;;8.02;0.47;;;;;;;23.84;37.89;100229.03;6227841;28;20045;-80
2022/07/12 13:17:22;;;;;;;5.78;0.55;;;;;;;24.59;37.71;100219.50;6240322;28;20053;-87
2022/07/12 13:20:24;;;;;;;0.90;0.47;;;;;;;24.83;36.44;100212.25;6256675;28;20059;-80
2022/07/12 13:23:25;;;;;;;0.57;0.32;;;;;;;24.36;36.16;100216.84;6238282;28;20064;-82
2022/07/12 13:26:26;;;;;;;3.20;0.50;;;;;;;24.28;35.98;100208.94;6239504;28;20053;-90
2022/07/12 13:29:27;;;;;;;0.60;0.30;;;;;;;24.65;35.58;100210.78;6299672;28;20475;-81
2022/07/12 13:32:28;;;;;;;3.50;0.50;;;;;;;24.87;36.81;100203.75;6280635;28;20044;-80
2022/07/12 13:35:29;;;;;;;3.00;0.50;;;;;;;24.76;35.53;100206.84;6264351;28;20140;-89
2022/07/12 13:38:30;;;;;;;1.02;0.40;;;;;;;24.79;34.97;100206.50;6247777;28;20552;-90
2022/07/12 13:41:31;;;;;;;2.35;0.50;;;;;;;24.57;34.89;100202.88;6274521;28;20049;-90
2022/07/12 13:44:34;;;;;;;1.37;0.57;;;;;;;24.68;34.12;100204.25;6277197;28;20053;-81
2022/07/12 13:47:36;;;;;;;2.63;0.40;;;;;;;24.80;34.61;100196.63;6238967;28;20037;-89
2022/07/12 13:50:37;;;;;;;0.90;0.40;;;;;;;24.81;33.58;100203.63;6272431;28;20053;-80
2022/07/12 13:53:40;;;;;;;1.88;0.38;;;;;;;24.64;32.89;100193.09;6237777;28;20041;-80
2022/07/12 13:56:41;;;;;;;0.30;0.30;;;;;;;24.68;33.89;100198.91;6254171;28;20037;-82
2022/07/12 13:59:42;;;;;;;3.67;0.55;;;;;;;24.84;33.98;100203.25;6255230;28;20044;-88
2022/07/12 14:02:49;;;;;;;1.33;0.43;;;;;;;24.44;32.16;100207.94;6238433;28;20072;-90
2022/07/12 14:05:50;;;;;;;0.60;0.40;;;;;;;24.64;32.73;100197.63;6273476;28;20491;-88
2022/07/12 14:08:52;;;;;;;1.90;0.30;;;;;;;24.65;31.98;100201.97;6256299;28;20048;-82
2022/07/12 14:11:53;;;;;;;2.10;0.20;;;;;;;24.88;31.76;100205.38;6254596;28;20347;-84
2022/07/12 14:18:12;;;;;;;1.98;0.35;;;;;;;24.01;34.02;100210.28;6255461;28;20072;-89